createdAt,value
2016-06-11T00:00:07.304Z,0
2016-06-11T00:01:07.308Z,0
2016-06-11T00:02:07.232Z,0
2016-06-11T00:03:07.439Z,0
2016-06-11T00:04:07.457Z,0
2016-06-11T00:05:07.523Z,0
2016-06-11T00:06:07.588Z,0
2016-06-11T00:07:07.607Z,0
2016-06-11T00:08:07.642Z,0
2016-06-11T00:09:07.722Z,0
2016-06-11T00:10:07.757Z,0
2016-06-11T00:11:07.838Z,0
2016-06-11T00:12:07.841Z,0
2016-06-11T00:13:07.891Z,0
2016-06-11T00:14:07.988Z,0
2016-06-11T00:15:08.007Z,0
2016-06-11T00:16:07.869Z,0
2016-06-11T00:17:08.106Z,0
2016-06-11T00:18:08.156Z,0
2016-06-11T00:19:08.175Z,0
2016-06-11T00:20:08.272Z,0
2016-06-11T00:21:08.306Z,0
2016-06-11T00:22:08.340Z,0
2016-06-11T00:23:08.391Z,0
2016-06-11T00:24:08.409Z,0
2016-06-11T00:25:08.349Z,0
2016-06-11T00:26:08.541Z,0
2016-06-11T00:27:08.559Z,0
2016-06-11T00:28:08.656Z,0
2016-06-11T00:29:09.347Z,0
2016-06-11T00:30:08.709Z,0
2016-06-11T00:31:08.790Z,0
2016-06-11T00:32:08.824Z,0
2016-06-11T00:33:08.859Z,0
2016-06-11T00:34:08.909Z,0
2016-06-11T00:35:08.974Z,0
2016-06-11T00:36:08.993Z,0
2016-06-11T00:37:09.059Z,0
2016-06-11T00:38:08.967Z,0
2016-06-11T00:39:09.143Z,0
2016-06-11T00:40:09.192Z,0
2016-06-11T00:41:09.259Z,0
2016-06-11T00:42:09.293Z,0
2016-06-11T00:43:09.327Z,0
2016-06-11T00:44:09.658Z,0
2016-06-11T00:45:09.458Z,0
2016-06-11T00:46:09.492Z,0
2016-06-11T00:47:09.542Z,0
2016-06-11T00:48:09.578Z,0
2016-06-11T00:49:09.501Z,0
2016-06-11T00:50:09.676Z,0
2016-06-11T00:51:09.712Z,0
2016-06-11T00:52:09.793Z,0
2016-06-11T00:53:09.873Z,0
2016-06-11T00:54:09.861Z,0
2016-06-11T00:55:09.927Z,0
2016-06-11T00:56:09.992Z,0
2016-06-11T00:57:09.995Z,0
2016-06-11T00:58:10.075Z,0
2016-06-11T00:59:10.829Z,0
2016-06-11T01:00:10.754Z,0
2016-06-11T01:01:10.210Z,0
2016-06-11T01:02:10.260Z,0
2016-06-11T01:03:10.357Z,0
2016-06-11T01:04:10.438Z,0
2016-06-11T01:05:10.380Z,0
2016-06-11T01:06:10.460Z,0
2016-06-11T01:07:10.511Z,0
2016-06-11T01:08:10.559Z,0
2016-06-11T01:09:10.595Z,0
2016-06-11T01:10:10.660Z,0
2016-06-11T01:11:10.694Z,0
2016-06-11T01:12:10.588Z,0
2016-06-11T01:13:10.810Z,0
2016-06-11T01:14:10.672Z,0
2016-06-11T01:15:10.910Z,0
2016-06-11T01:16:10.913Z,0
2016-06-11T01:17:10.978Z,0
2016-06-11T01:18:11.045Z,0
2016-06-11T01:19:11.079Z,0
2016-06-11T01:20:11.112Z,0
2016-06-11T01:21:11.225Z,0
2016-06-11T01:22:11.228Z,0
2016-06-11T01:23:11.246Z,0
2016-06-11T01:24:11.344Z,0
2016-06-11T01:25:11.377Z,0
2016-06-11T01:26:11.240Z,0
2016-06-11T01:27:11.478Z,0
2016-06-11T01:28:11.528Z,0
2016-06-11T01:29:11.562Z,0
2016-06-11T01:30:12.096Z,0
2016-06-11T01:31:11.678Z,0
2016-06-11T01:32:11.696Z,0
2016-06-11T01:33:11.747Z,0
2016-06-11T01:34:11.811Z,0
2016-06-11T01:35:11.877Z,0
2016-06-11T01:36:11.943Z,0
2016-06-11T01:37:11.962Z,0
2016-06-11T01:38:11.996Z,0
2016-06-11T01:39:12.077Z,0
2016-06-11T01:40:12.096Z,0
2016-06-11T01:41:12.130Z,0
2016-06-11T01:42:12.197Z,0
2016-06-11T01:43:12.230Z,0
2016-06-11T01:44:13.077Z,0
2016-06-11T01:45:13.096Z,0
2016-06-11T01:46:12.380Z,0
2016-06-11T01:47:12.430Z,0
2016-06-11T01:48:12.479Z,0
2016-06-11T01:49:12.529Z,0
2016-06-11T01:50:12.596Z,0
2016-06-11T01:51:12.646Z,0
2016-06-11T01:52:12.648Z,0
2016-06-11T01:53:12.808Z,0
2016-06-11T01:54:12.764Z,0
2016-06-11T01:55:12.798Z,0
2016-06-11T01:56:12.879Z,0
2016-06-11T01:57:12.914Z,0
2016-06-11T01:58:12.948Z,0
2016-06-11T01:59:13.748Z,0
2016-06-11T02:00:13.673Z,0
2016-06-11T02:01:13.083Z,0
2016-06-11T02:02:13.147Z,0
2016-06-11T02:03:13.214Z,0
2016-06-11T02:04:13.217Z,0
2016-06-11T02:05:13.298Z,0
2016-06-11T02:06:13.332Z,0
2016-06-11T02:07:13.398Z,0
2016-06-11T02:08:13.448Z,0
2016-06-11T02:09:13.466Z,0
2016-06-11T02:10:13.392Z,0
2016-06-11T02:11:13.598Z,0
2016-06-11T02:12:13.616Z,0
2016-06-11T02:13:13.682Z,0
2016-06-11T02:14:13.888Z,0
2016-06-11T02:15:13.470Z,0
2016-06-11T02:16:13.800Z,0
2016-06-11T02:17:13.897Z,0
2016-06-11T02:18:13.932Z,0
2016-06-11T02:19:13.778Z,0
2016-06-11T02:20:14.078Z,0
2016-06-11T02:21:14.066Z,0
2016-06-11T02:22:14.100Z,0
2016-06-11T02:23:14.165Z,0
2016-06-11T02:24:14.232Z,0
2016-06-11T02:25:14.234Z,0
2016-06-11T02:26:14.299Z,0
2016-06-11T02:27:14.366Z,0
2016-06-11T02:28:14.369Z,0
2016-06-11T02:29:14.637Z,0
2016-06-11T02:30:15.346Z,0
2016-06-11T02:31:14.549Z,4
2016-06-11T02:32:14.600Z,4
2016-06-11T02:33:14.618Z,4
2016-06-11T02:34:14.668Z,0
2016-06-11T02:35:14.749Z,0
2016-06-11T02:36:14.768Z,4
2016-06-11T02:37:14.818Z,4
2016-06-11T02:38:14.883Z,4
2016-06-11T02:39:14.919Z,0
2016-06-11T02:40:14.952Z,4
2016-06-11T02:41:15.033Z,4
2016-06-11T02:42:15.067Z,8
2016-06-11T02:43:15.118Z,4
2016-06-11T02:44:15.449Z,8
2016-06-11T02:45:15.062Z,4
2016-06-11T02:46:15.267Z,8
2016-06-11T02:47:15.302Z,8
2016-06-11T02:48:15.336Z,12
2016-06-11T02:49:15.402Z,12
2016-06-11T02:50:15.467Z,16
2016-06-11T02:51:15.470Z,16
2016-06-11T02:52:15.551Z,16
2016-06-11T02:53:15.649Z,16
2016-06-11T02:54:15.604Z,20
2016-06-11T02:55:15.685Z,20
2016-06-11T02:56:15.721Z,24
2016-06-11T02:57:15.817Z,28
2016-06-11T02:58:15.819Z,32
2016-06-11T02:59:15.698Z,32
2016-06-11T03:00:16.329Z,36
2016-06-11T03:01:15.970Z,40
2016-06-11T03:02:16.004Z,44
2016-06-11T03:03:16.071Z,48
2016-06-11T03:04:16.120Z,52
2016-06-11T03:05:16.138Z,60
2016-06-11T03:06:16.033Z,68
2016-06-11T03:07:16.254Z,76
2016-06-11T03:08:16.272Z,80
2016-06-11T03:09:16.354Z,84
2016-06-11T03:10:16.373Z,88
2016-06-11T03:11:16.438Z,96
2016-06-11T03:12:16.487Z,100
2016-06-11T03:13:16.522Z,100
2016-06-11T03:14:16.588Z,104
2016-06-11T03:15:17.141Z,108
2016-06-11T03:16:16.657Z,108
2016-06-11T03:17:16.722Z,116
2016-06-11T03:18:16.772Z,124
2016-06-11T03:19:16.806Z,132
2016-06-11T03:20:16.841Z,140
2016-06-11T03:21:16.922Z,148
2016-06-11T03:22:16.956Z,156
2016-06-11T03:23:16.866Z,164
2016-06-11T03:24:17.025Z,172
2016-06-11T03:25:17.090Z,180
2016-06-11T03:26:17.156Z,188
2016-06-11T03:27:17.175Z,200
2016-06-11T03:28:17.225Z,208
2016-06-11T03:29:17.150Z,216
2016-06-11T03:30:17.640Z,224
2016-06-11T03:31:17.359Z,236
2016-06-11T03:32:17.440Z,248
2016-06-11T03:33:17.478Z,256
2016-06-11T03:34:17.528Z,264
2016-06-11T03:35:17.561Z,276
2016-06-11T03:36:17.436Z,288
2016-06-11T03:37:17.678Z,296
2016-06-11T03:38:17.711Z,312
2016-06-11T03:39:17.746Z,320
2016-06-11T03:40:17.827Z,340
2016-06-11T03:41:17.862Z,352
2016-06-11T03:42:17.880Z,368
2016-06-11T03:43:17.961Z,380
2016-06-11T03:44:18.011Z,396
2016-06-11T03:45:19.124Z,412
2016-06-11T03:46:18.080Z,428
2016-06-11T03:47:18.131Z,440
2016-06-11T03:48:18.196Z,452
2016-06-11T03:49:18.246Z,468
2016-06-11T03:50:18.264Z,484
2016-06-11T03:51:18.330Z,504
2016-06-11T03:52:18.380Z,524
2016-06-11T03:53:18.445Z,540
2016-06-11T03:54:18.464Z,564
2016-06-11T03:55:18.530Z,592
2016-06-11T03:56:18.533Z,620
2016-06-11T03:57:18.598Z,644
2016-06-11T03:58:18.508Z,672
2016-06-11T03:59:18.682Z,696
2016-06-11T04:00:19.576Z,720
2016-06-11T04:01:18.657Z,748
2016-06-11T04:02:18.832Z,772
2016-06-11T04:03:18.882Z,796
2016-06-11T04:04:18.947Z,820
2016-06-11T04:05:18.998Z,844
2016-06-11T04:06:19.017Z,868
2016-06-11T04:07:19.081Z,892
2016-06-11T04:08:19.148Z,920
2016-06-11T04:09:19.151Z,944
2016-06-11T04:10:19.232Z,976
2016-06-11T04:11:19.282Z,1004
2016-06-11T04:12:19.300Z,1032
2016-06-11T04:13:19.366Z,1060
2016-06-11T04:14:19.385Z,1088
2016-06-11T04:15:19.778Z,1116
2016-06-11T04:16:19.359Z,1148
2016-06-11T04:17:19.519Z,1172
2016-06-11T04:18:19.584Z,1204
2016-06-11T04:19:19.649Z,1228
2016-06-11T04:20:19.669Z,1252
2016-06-11T04:21:19.563Z,1272
2016-06-11T04:22:19.800Z,1292
2016-06-11T04:23:19.819Z,1312
2016-06-11T04:24:19.870Z,1328
2016-06-11T04:25:19.934Z,1344
2016-06-11T04:26:19.968Z,1356
2016-06-11T04:27:20.034Z,1372
2016-06-11T04:28:20.053Z,1384
2016-06-11T04:29:20.102Z,1396
2016-06-11T04:30:20.247Z,1404
2016-06-11T04:31:20.203Z,1416
2016-06-11T04:32:20.097Z,1428
2016-06-11T04:33:20.318Z,1440
2016-06-11T04:34:20.196Z,1448
2016-06-11T04:35:20.371Z,1460
2016-06-11T04:36:20.468Z,1476
2016-06-11T04:37:20.487Z,1488
2016-06-11T04:38:20.537Z,1504
2016-06-11T04:39:20.430Z,1528
2016-06-11T04:40:20.605Z,1548
2016-06-11T04:41:20.687Z,1580
2016-06-11T04:42:20.720Z,1608
2016-06-11T04:43:20.755Z,1636
2016-06-11T04:44:20.837Z,1664
2016-06-11T04:45:21.276Z,1692
2016-06-11T04:46:20.904Z,1728
2016-06-11T04:47:20.955Z,1768
2016-06-11T04:48:21.021Z,1820
2016-06-11T04:49:21.039Z,1872
2016-06-11T04:50:21.105Z,1928
2016-06-11T04:51:21.139Z,1976
2016-06-11T04:52:21.220Z,2024
2016-06-11T04:53:21.302Z,2072
2016-06-11T04:54:21.289Z,2116
2016-06-11T04:55:21.354Z,2164
2016-06-11T04:56:21.404Z,2200
2016-06-11T04:57:21.423Z,2236
2016-06-11T04:58:21.333Z,2268
2016-06-11T04:59:21.555Z,2296
2016-06-11T05:00:21.416Z,2324
2016-06-11T05:01:21.608Z,2360
2016-06-11T05:02:21.689Z,2404
2016-06-11T05:03:21.707Z,2456
2016-06-11T05:04:21.788Z,2532
2016-06-11T05:05:21.807Z,2616
2016-06-11T05:06:21.873Z,2704
2016-06-11T05:07:21.923Z,2796
2016-06-11T05:08:21.957Z,2892
2016-06-11T05:09:21.851Z,2988
2016-06-11T05:10:22.072Z,3084
2016-06-11T05:11:21.951Z,3176
2016-06-11T05:12:22.126Z,3256
2016-06-11T05:13:22.222Z,3336
2016-06-11T05:14:22.257Z,3404
2016-06-11T05:15:22.401Z,3472
2016-06-11T05:16:22.357Z,3532
2016-06-11T05:17:22.391Z,3592
2016-06-11T05:18:22.456Z,3640
2016-06-11T05:19:22.492Z,3688
2016-06-11T05:20:22.526Z,3720
2016-06-11T05:21:22.606Z,3748
2016-06-11T05:22:22.656Z,3776
2016-06-11T05:23:22.676Z,3792
2016-06-11T05:24:22.756Z,3800
2016-06-11T05:25:22.791Z,3812
2016-06-11T05:26:22.810Z,3824
2016-06-11T05:27:22.874Z,3840
2016-06-11T05:28:22.925Z,3860
2016-06-11T05:29:22.959Z,3880
2016-06-11T05:30:23.134Z,3900
2016-06-11T05:31:23.059Z,3936
2016-06-11T05:32:22.968Z,3952
2016-06-11T05:33:23.174Z,3980
2016-06-11T05:34:23.193Z,4016
2016-06-11T05:35:23.259Z,4060
2016-06-11T05:36:23.324Z,4108
2016-06-11T05:37:23.186Z,4168
2016-06-11T05:38:23.393Z,4236
2016-06-11T05:39:23.474Z,4308
2016-06-11T05:40:23.445Z,4388
2016-06-11T05:41:23.527Z,4472
2016-06-11T05:42:23.609Z,4548
2016-06-11T05:43:23.627Z,4628
2016-06-11T05:44:23.677Z,4708
2016-06-11T05:45:23.837Z,4780
2016-06-11T05:46:23.777Z,4848
2016-06-11T05:47:23.811Z,4916
2016-06-11T05:48:23.892Z,4976
2016-06-11T05:49:23.943Z,5032
2016-06-11T05:50:23.961Z,5084
2016-06-11T05:51:24.026Z,5136
2016-06-11T05:52:24.093Z,5180
2016-06-11T05:53:24.174Z,5224
2016-06-11T05:54:24.161Z,5272
2016-06-11T05:55:24.210Z,5332
2016-06-11T05:56:24.154Z,5388
2016-06-11T05:57:24.402Z,5460
2016-06-11T05:58:24.477Z,5520
2016-06-11T05:59:24.567Z,5592
2016-06-11T06:00:24.674Z,5652
2016-06-11T06:01:25.117Z,5708
2016-06-11T06:02:24.791Z,5752
2016-06-11T06:03:24.871Z,5784
2016-06-11T06:04:24.889Z,5804
2016-06-11T06:05:24.969Z,5816
2016-06-11T06:06:25.042Z,5816
2016-06-11T06:07:25.081Z,5812
2016-06-11T06:08:25.152Z,5792
2016-06-11T06:09:25.176Z,5764
2016-06-11T06:10:25.091Z,5724
2016-06-11T06:11:25.315Z,5672
2016-06-11T06:12:25.320Z,5612
2016-06-11T06:13:25.388Z,5544
2016-06-11T06:14:25.455Z,5480
2016-06-11T06:15:25.351Z,5412
2016-06-11T06:16:26.214Z,5360
2016-06-11T06:17:25.609Z,5308
2016-06-11T06:18:25.659Z,5276
2016-06-11T06:19:25.678Z,5252
2016-06-11T06:20:25.760Z,5232
2016-06-11T06:21:25.796Z,5220
2016-06-11T06:22:25.877Z,5212
2016-06-11T06:23:25.880Z,5212
2016-06-11T06:24:25.929Z,5212
2016-06-11T06:25:25.995Z,5212
2016-06-11T06:26:26.045Z,5212
2016-06-11T06:27:26.079Z,5208
2016-06-11T06:28:26.145Z,5208
2016-06-11T06:29:26.038Z,5200
2016-06-11T06:30:26.213Z,5200
2016-06-11T06:31:26.326Z,5204
2016-06-11T06:32:26.345Z,5212
2016-06-11T06:33:26.363Z,5224
2016-06-11T06:34:26.413Z,5236
2016-06-11T06:35:26.464Z,5260
2016-06-11T06:36:26.373Z,5284
2016-06-11T06:37:26.625Z,5308
2016-06-11T06:38:26.441Z,5332
2016-06-11T06:39:26.663Z,5364
2016-06-11T06:40:26.744Z,5392
2016-06-11T06:41:26.747Z,5432
2016-06-11T06:42:26.798Z,5464
2016-06-11T06:43:26.722Z,5516
2016-06-11T06:44:26.881Z,5576
2016-06-11T06:45:27.025Z,5644
2016-06-11T06:46:26.857Z,5716
2016-06-11T06:47:27.047Z,5800
2016-06-11T06:48:27.112Z,5888
2016-06-11T06:49:26.974Z,5976
2016-06-11T06:50:27.213Z,6072
2016-06-11T06:51:27.278Z,6172
2016-06-11T06:52:27.280Z,6280
2016-06-11T06:53:27.378Z,6392
2016-06-11T06:54:27.412Z,6508
2016-06-11T06:55:27.431Z,6616
2016-06-11T06:56:27.465Z,6728
2016-06-11T06:57:27.547Z,6836
2016-06-11T06:58:27.580Z,6956
2016-06-11T06:59:27.646Z,7080
2016-06-11T07:00:28.712Z,7216
2016-06-11T07:01:28.121Z,7356
2016-06-11T07:02:27.781Z,7504
2016-06-11T07:03:27.814Z,7656
2016-06-11T07:04:27.849Z,7804
2016-06-11T07:05:27.946Z,7960
2016-06-11T07:06:27.980Z,8100
2016-06-11T07:07:28.015Z,8228
2016-06-11T07:08:28.080Z,8352
2016-06-11T07:09:28.130Z,8460
2016-06-11T07:10:28.149Z,8548
2016-06-11T07:11:28.214Z,8632
2016-06-11T07:12:28.248Z,8708
2016-06-11T07:13:28.330Z,8772
2016-06-11T07:14:28.209Z,8832
2016-06-11T07:15:28.414Z,8888
2016-06-11T07:16:28.932Z,8940
2016-06-11T07:17:28.358Z,8996
2016-06-11T07:18:28.533Z,9052
2016-06-11T07:19:28.613Z,9104
2016-06-11T07:20:28.664Z,9156
2016-06-11T07:21:28.683Z,9212
2016-06-11T07:22:28.748Z,9268
2016-06-11T07:23:28.814Z,9328
2016-06-11T07:24:28.832Z,9384
2016-06-11T07:25:28.882Z,9440
2016-06-11T07:26:28.963Z,9492
2016-06-11T07:27:28.998Z,9548
2016-06-11T07:28:29.033Z,9592
2016-06-11T07:29:29.114Z,9640
2016-06-11T07:30:29.475Z,9684
2016-06-11T07:31:29.714Z,9736
2016-06-11T07:32:29.263Z,9792
2016-06-11T07:33:29.298Z,9852
2016-06-11T07:34:29.332Z,9916
2016-06-11T07:35:29.382Z,9988
2016-06-11T07:36:29.463Z,10064
2016-06-11T07:37:29.325Z,10152
2016-06-11T07:38:29.547Z,10240
2016-06-11T07:39:29.567Z,10328
2016-06-11T07:40:29.647Z,10420
2016-06-11T07:41:29.697Z,10504
2016-06-11T07:42:29.716Z,10600
2016-06-11T07:43:29.641Z,10696
2016-06-11T07:44:29.846Z,10796
2016-06-11T07:45:29.944Z,10888
2016-06-11T07:46:30.322Z,10988
2016-06-11T07:47:29.841Z,11088
2016-06-11T07:48:30.016Z,11180
2016-06-11T07:49:30.066Z,11272
2016-06-11T07:50:30.131Z,11344
2016-06-11T07:51:30.181Z,11416
2016-06-11T07:52:30.231Z,11468
2016-06-11T07:53:30.313Z,11496
2016-06-11T07:54:30.332Z,11476
2016-06-11T07:55:30.240Z,11432
2016-06-11T07:56:30.415Z,11368
2016-06-11T07:57:30.325Z,11304
2016-06-11T07:58:30.547Z,11252
2016-06-11T07:59:30.409Z,11236
2016-06-11T08:00:31.600Z,11244
2016-06-11T08:01:30.728Z,11272
2016-06-11T08:02:30.731Z,11308
2016-06-11T08:03:30.780Z,11344
2016-06-11T08:04:30.799Z,11376
2016-06-11T08:05:30.866Z,11388
2016-06-11T08:06:30.946Z,11392
2016-06-11T08:07:30.965Z,11388
2016-06-11T08:08:30.999Z,11388
2016-06-11T08:09:31.080Z,11384
2016-06-11T08:10:31.114Z,11376
2016-06-11T08:11:31.149Z,11376
2016-06-11T08:12:31.230Z,11368
2016-06-11T08:13:31.279Z,11356
2016-06-11T08:14:31.314Z,11332
2016-06-11T08:15:31.474Z,11280
2016-06-11T08:16:31.414Z,11240
2016-06-11T08:17:31.495Z,11176
2016-06-11T08:18:31.515Z,11120
2016-06-11T08:19:31.564Z,11056
2016-06-11T08:20:31.629Z,11000
2016-06-11T08:21:31.679Z,10948
2016-06-11T08:22:31.699Z,10904
2016-06-11T08:23:31.780Z,10868
2016-06-11T08:24:31.830Z,10848
2016-06-11T08:25:31.848Z,10824
2016-06-11T08:26:31.914Z,10796
2016-06-11T08:27:32.011Z,10780
2016-06-11T08:28:31.998Z,10764
2016-06-11T08:29:32.079Z,10748
2016-06-11T08:30:32.098Z,10736
2016-06-11T08:31:32.226Z,10720
2016-06-11T08:32:32.244Z,10708
2016-06-11T08:33:32.247Z,10700
2016-06-11T08:34:32.313Z,10688
2016-06-11T08:35:32.379Z,10684
2016-06-11T08:36:32.398Z,10680
2016-06-11T08:37:32.447Z,10680
2016-06-11T08:38:32.528Z,10680
2016-06-11T08:39:32.563Z,10688
2016-06-11T08:40:32.598Z,10696
2016-06-11T08:41:32.679Z,10716
2016-06-11T08:42:32.697Z,10740
2016-06-11T08:43:32.778Z,10764
2016-06-11T08:44:32.797Z,10800
2016-06-11T08:45:32.847Z,10844
2016-06-11T08:46:33.694Z,10892
2016-06-11T08:47:32.962Z,10944
2016-06-11T08:48:32.997Z,11012
2016-06-11T08:49:33.078Z,11068
2016-06-11T08:50:33.128Z,11128
2016-06-11T08:51:33.147Z,11188
2016-06-11T08:52:33.260Z,11256
2016-06-11T08:53:33.325Z,11340
2016-06-11T08:54:33.328Z,11444
2016-06-11T08:55:33.362Z,11572
2016-06-11T08:56:33.397Z,11712
2016-06-11T08:57:33.478Z,11860
2016-06-11T08:58:33.512Z,11996
2016-06-11T08:59:33.547Z,12128
2016-06-11T09:00:33.643Z,12248
2016-06-11T09:01:34.647Z,12360
2016-06-11T09:02:33.711Z,12468
2016-06-11T09:03:33.761Z,12564
2016-06-11T09:04:33.827Z,12664
2016-06-11T09:05:33.846Z,12740
2016-06-11T09:06:33.912Z,12828
2016-06-11T09:07:33.976Z,12900
2016-06-11T09:08:33.855Z,12964
2016-06-11T09:09:34.062Z,13012
2016-06-11T09:10:34.143Z,13056
2016-06-11T09:11:34.161Z,13084
2016-06-11T09:12:34.196Z,13100
2016-06-11T09:13:34.278Z,13100
2016-06-11T09:14:34.327Z,13104
2016-06-11T09:15:34.361Z,13124
2016-06-11T09:16:35.223Z,13160
2016-06-11T09:17:34.476Z,13212
2016-06-11T09:18:34.496Z,13288
2016-06-11T09:19:34.577Z,13376
2016-06-11T09:20:34.611Z,13488
2016-06-11T09:21:34.691Z,13596
2016-06-11T09:22:34.727Z,13704
2016-06-11T09:23:34.776Z,13804
2016-06-11T09:24:34.826Z,13896
2016-06-11T09:25:34.876Z,13976
2016-06-11T09:26:34.911Z,14064
2016-06-11T09:27:35.023Z,14156
2016-06-11T09:28:35.042Z,14264
2016-06-11T09:29:34.904Z,14376
2016-06-11T09:30:35.111Z,14496
2016-06-11T09:31:36.020Z,14616
2016-06-11T09:32:35.226Z,14732
2016-06-11T09:33:35.276Z,14844
2016-06-11T09:34:35.310Z,14940
2016-06-11T09:35:35.376Z,15032
2016-06-11T09:36:35.441Z,15116
2016-06-11T09:37:35.460Z,15200
2016-06-11T09:38:35.526Z,15268
2016-06-11T09:39:35.607Z,15336
2016-06-11T09:40:35.611Z,15396
2016-06-11T09:41:35.660Z,15452
2016-06-11T09:42:35.756Z,15504
2016-06-11T09:43:35.776Z,15560
2016-06-11T09:44:35.654Z,15620
2016-06-11T09:45:35.891Z,15680
2016-06-11T09:46:36.441Z,15736
2016-06-11T09:47:35.850Z,15808
2016-06-11T09:48:36.024Z,15876
2016-06-11T09:49:36.075Z,15948
2016-06-11T09:50:36.156Z,16012
2016-06-11T09:51:36.191Z,16052
2016-06-11T09:52:36.225Z,16080
2016-06-11T09:53:36.353Z,16080
2016-06-11T09:54:36.340Z,16064
2016-06-11T09:55:36.374Z,16036
2016-06-11T09:56:36.456Z,16000
2016-06-11T09:57:36.522Z,15972
2016-06-11T09:58:36.541Z,15960
2016-06-11T09:59:36.574Z,15956
2016-06-11T10:00:36.624Z,15984
2016-06-11T10:01:37.253Z,16012
2016-06-11T10:02:36.600Z,16040
2016-06-11T10:03:36.790Z,16072
2016-06-11T10:04:36.856Z,16092
2016-06-11T10:05:36.766Z,16124
2016-06-11T10:06:36.924Z,16136
2016-06-11T10:07:37.005Z,16144
2016-06-11T10:08:37.071Z,16144
2016-06-11T10:09:37.090Z,16152
2016-06-11T10:10:37.156Z,16156
2016-06-11T10:11:37.189Z,16168
2016-06-11T10:12:37.270Z,16188
2016-06-11T10:13:37.320Z,16232
2016-06-11T10:14:37.340Z,16300
2016-06-11T10:15:37.421Z,16392
2016-06-11T10:16:37.486Z,16512
2016-06-11T10:17:37.489Z,16644
2016-06-11T10:18:37.570Z,16928
2016-06-11T10:19:37.637Z,17056
2016-06-11T10:20:37.639Z,17248
2016-06-11T10:21:37.704Z,17440
2016-06-11T10:22:37.770Z,17632
2016-06-11T10:23:37.804Z,17824
2016-06-11T10:24:37.901Z,17952
2016-06-11T10:25:37.904Z,18112
2016-06-11T10:26:37.970Z,18144
2016-06-11T10:27:38.035Z,18112
2016-06-11T10:28:38.055Z,18048
2016-06-11T10:29:38.119Z,17952
2016-06-11T10:30:38.186Z,17824
2016-06-11T10:31:38.251Z,17760
2016-06-11T10:32:38.317Z,17696
2016-06-11T10:33:38.336Z,17664
2016-06-11T10:34:38.401Z,17696
2016-06-11T10:35:38.404Z,17696
2016-06-11T10:36:38.345Z,17792
2016-06-11T10:37:38.519Z,17920
2016-06-11T10:38:38.600Z,18080
2016-06-11T10:39:38.635Z,18272
2016-06-11T10:40:38.669Z,18528
2016-06-11T10:41:38.766Z,18784
2016-06-11T10:42:38.800Z,19072
2016-06-11T10:43:38.835Z,19424
2016-06-11T10:44:38.932Z,19808
2016-06-11T10:45:38.966Z,20128
2016-06-11T10:46:39.891Z,20512
2016-06-11T10:47:39.659Z,20864
2016-06-11T10:48:39.132Z,21152
2016-06-11T10:49:39.134Z,21472
2016-06-11T10:50:39.201Z,21760
2016-06-11T10:51:39.281Z,22016
2016-06-11T10:52:39.300Z,22304
2016-06-11T10:53:39.412Z,22528
2016-06-11T10:54:39.431Z,22880
2016-06-11T10:55:39.481Z,23200
2016-06-11T10:56:39.500Z,23616
2016-06-11T10:57:39.581Z,23904
2016-06-11T10:58:39.631Z,24096
2016-06-11T10:59:39.665Z,24384
2016-06-11T11:00:39.590Z,24544
2016-06-11T11:01:40.249Z,24736
2016-06-11T11:02:39.691Z,24928
2016-06-11T11:03:39.880Z,25184
2016-06-11T11:04:39.930Z,25472
2016-06-11T11:05:40.044Z,25696
2016-06-11T11:06:39.889Z,25952
2016-06-11T11:07:40.081Z,26144
2016-06-11T11:08:40.162Z,26368
2016-06-11T11:09:40.212Z,26624
2016-06-11T11:10:40.245Z,26880
2016-06-11T11:11:40.327Z,27072
2016-06-11T11:12:40.393Z,27232
2016-06-11T11:13:40.239Z,27328
2016-06-11T11:14:40.477Z,27392
2016-06-11T11:15:40.511Z,27424
2016-06-11T11:16:40.609Z,27488
2016-06-11T11:17:40.689Z,27456
2016-06-11T11:18:40.505Z,27520
2016-06-11T11:19:40.743Z,27520
2016-06-11T11:20:40.808Z,27584
2016-06-11T11:21:40.827Z,27616
2016-06-11T11:22:40.892Z,27648
2016-06-11T11:23:40.817Z,27744
2016-06-11T11:24:41.008Z,27776
2016-06-11T11:25:41.058Z,27872
2016-06-11T11:26:41.154Z,27936
2016-06-11T11:27:41.173Z,27968
2016-06-11T11:28:41.239Z,27968
2016-06-11T11:29:41.258Z,28000
2016-06-11T11:30:41.339Z,28000
2016-06-11T11:31:42.405Z,28064
2016-06-11T11:32:42.423Z,28064
2016-06-11T11:33:41.489Z,28000
2016-06-11T11:34:41.413Z,28096
2016-06-11T11:35:41.589Z,28128
2016-06-11T11:36:41.482Z,28128
2016-06-11T11:37:41.719Z,28096
2016-06-11T11:38:41.770Z,28032
2016-06-11T11:39:41.805Z,28032
2016-06-11T11:40:41.885Z,28032
2016-06-11T11:41:41.919Z,28064
2016-06-11T11:42:42.001Z,28064
2016-06-11T11:43:42.035Z,28064
2016-06-11T11:44:42.069Z,28032
2016-06-11T11:45:42.167Z,27968
2016-06-11T11:46:42.231Z,27904
2016-06-11T11:47:42.407Z,27712
2016-06-11T11:48:42.332Z,27616
2016-06-11T11:49:42.224Z,27616
2016-06-11T11:50:42.400Z,27616
2016-06-11T11:51:42.481Z,27520
2016-06-11T11:52:42.531Z,27392
2016-06-11T11:53:42.722Z,27360
2016-06-11T11:54:42.647Z,27296
2016-06-11T11:55:42.665Z,27232
2016-06-11T11:56:42.762Z,27232
2016-06-11T11:57:42.812Z,27168
2016-06-11T11:58:42.846Z,27072
2016-06-11T11:59:42.913Z,26944
2016-06-11T12:00:42.978Z,26944
2016-06-11T12:01:43.294Z,26976
2016-06-11T12:02:43.078Z,27168
2016-06-11T12:03:43.159Z,27296
2016-06-11T12:04:43.192Z,27584
2016-06-11T12:05:43.228Z,27808
2016-06-11T12:06:43.293Z,27968
2016-06-11T12:07:43.202Z,28096
2016-06-11T12:08:43.424Z,28320
2016-06-11T12:09:43.444Z,28640
2016-06-11T12:10:43.508Z,28864
2016-06-11T12:11:43.574Z,29152
2016-06-11T12:12:43.609Z,29408
2016-06-11T12:13:43.659Z,29536
2016-06-11T12:14:43.755Z,29600
2016-06-11T12:15:43.790Z,29696
2016-06-11T12:16:43.683Z,29504
2016-06-11T12:17:43.921Z,29472
2016-06-11T12:18:43.955Z,29184
2016-06-11T12:19:44.005Z,28832
2016-06-11T12:20:44.039Z,28704
2016-06-11T12:21:44.105Z,28640
2016-06-11T12:22:44.186Z,28640
2016-06-11T12:23:44.220Z,28256
2016-06-11T12:24:44.271Z,27840
2016-06-11T12:25:44.351Z,27200
2016-06-11T12:26:44.402Z,26656
2016-06-11T12:27:44.436Z,26208
2016-06-11T12:28:44.548Z,25024
2016-06-11T12:29:44.583Z,24128
2016-06-11T12:30:44.601Z,23424
2016-06-11T12:31:44.901Z,22816
2016-06-11T12:32:44.857Z,22336
2016-06-11T12:33:44.782Z,22016
2016-06-11T12:34:44.849Z,21824
2016-06-11T12:35:44.914Z,21760
2016-06-11T12:36:44.932Z,21792
2016-06-11T12:37:44.997Z,21984
2016-06-11T12:38:45.079Z,22336
2016-06-11T12:39:45.114Z,22784
2016-06-11T12:40:45.148Z,23264
2016-06-11T12:41:45.245Z,23712
2016-06-11T12:42:45.279Z,24000
2016-06-11T12:43:45.313Z,24224
2016-06-11T12:44:45.410Z,24416
2016-06-11T12:45:45.429Z,24672
2016-06-11T12:46:45.416Z,24960
2016-06-11T12:47:45.997Z,25024
2016-06-11T12:48:45.578Z,25248
2016-06-11T12:49:45.676Z,25792
2016-06-11T12:50:45.584Z,25792
2016-06-11T12:51:45.745Z,26336
2016-06-11T12:52:45.841Z,27104
2016-06-11T12:53:45.954Z,26752
2016-06-11T12:54:45.910Z,26496
2016-06-11T12:55:45.991Z,26816
2016-06-11T12:56:46.056Z,26976
2016-06-11T12:57:46.091Z,27200
2016-06-11T12:58:46.141Z,27392
2016-06-11T12:59:46.191Z,27872
2016-06-11T13:00:46.272Z,27808
2016-06-11T13:01:46.181Z,26784
2016-06-11T13:02:46.482Z,26816
2016-06-11T13:03:46.296Z,26912
2016-06-11T13:04:46.488Z,27136
2016-06-11T13:05:46.521Z,27328
2016-06-11T13:06:46.587Z,27616
2016-06-11T13:07:46.653Z,27968
2016-06-11T13:08:46.703Z,28448
2016-06-11T13:09:46.737Z,29088
2016-06-11T13:10:46.803Z,29792
2016-06-11T13:11:46.868Z,30464
2016-06-11T13:12:46.934Z,31104
2016-06-11T13:13:46.952Z,31776
2016-06-11T13:14:46.862Z,33408
2016-06-11T13:15:47.114Z,33024
2016-06-11T13:16:47.117Z,32288
2016-06-11T13:17:47.652Z,31712
2016-06-11T13:18:47.140Z,31904
2016-06-11T13:19:47.299Z,32480
2016-06-11T13:20:47.349Z,32864
2016-06-11T13:21:47.446Z,31168
2016-06-11T13:22:47.465Z,28352
2016-06-11T13:23:47.530Z,28064
2016-06-11T13:24:47.564Z,28064
2016-06-11T13:25:47.614Z,28320
2016-06-11T13:26:47.712Z,28800
2016-06-11T13:27:47.730Z,29376